createdAt,value
2018-11-01T00:04:23.979Z,4.20
2018-11-01T00:09:09.031Z,4.20
2018-11-01T00:13:49.159Z,4.10
2018-11-01T00:18:29.193Z,4.10
2018-11-01T00:23:13.156Z,4.20
2018-11-01T00:27:53.590Z,4.20
2018-11-01T00:32:33.696Z,4.20
2018-11-01T00:37:13.848Z,4.20
2018-11-01T00:41:53.877Z,4.20
2018-11-01T00:46:33.948Z,4.10
2018-11-01T00:51:13.927Z,4.20
2018-11-01T00:55:54.597Z,4.30
2018-11-01T01:00:35.165Z,4.30
2018-11-01T01:05:15.641Z,4.30
2018-11-01T01:09:55.756Z,4.30
2018-11-01T01:14:35.563Z,4.30
2018-11-01T01:19:16.026Z,4.30
2018-11-01T01:23:56.725Z,4.30
2018-11-01T01:28:36.596Z,4.40
2018-11-01T01:33:19.213Z,4.40
2018-11-01T01:37:59.332Z,4.40
2018-11-01T01:42:51.532Z,4.30
2018-11-01T01:47:32.080Z,4.20
2018-11-01T01:52:12.997Z,4.20
2018-11-01T01:56:53.451Z,4.20
2018-11-01T02:01:34.148Z,4.10
2018-11-01T02:06:15.056Z,4.10
2018-11-01T02:10:55.095Z,4.00
2018-11-01T02:15:35.132Z,4.10
2018-11-01T02:20:16.957Z,4.00
2018-11-01T02:24:56.709Z,4.00
2018-11-01T02:29:36.730Z,4.00
2018-11-01T02:34:16.752Z,4.00
2018-11-01T02:38:56.441Z,4.00
2018-11-01T02:43:36.268Z,4.00
2018-11-01T02:48:16.165Z,4.00
2018-11-01T02:52:55.988Z,4.00
2018-11-01T02:57:35.969Z,3.90
2018-11-01T03:02:16.480Z,3.90
2018-11-01T03:06:56.540Z,3.90
2018-11-01T03:11:36.305Z,3.90
2018-11-01T03:16:16.433Z,4.00
2018-11-01T03:20:56.443Z,3.90
2018-11-01T03:25:36.212Z,3.80
2018-11-01T03:30:16.788Z,3.70
2018-11-01T03:34:57.017Z,3.70
2018-11-01T03:39:37.113Z,3.60
2018-11-01T03:44:17.383Z,3.60
2018-11-01T03:48:58.848Z,3.60
2018-11-01T03:53:39.240Z,3.40
2018-11-01T03:58:19.137Z,3.40
2018-11-01T04:02:59.068Z,3.30
2018-11-01T04:07:39.211Z,3.30
2018-11-01T04:12:19.018Z,3.20
2018-11-01T04:16:59.036Z,3.20
2018-11-01T04:21:50.288Z,3.20
2018-11-01T04:26:30.256Z,3.30
2018-11-01T04:31:10.114Z,3.40
2018-11-01T04:35:50.160Z,3.50
2018-11-01T04:40:29.856Z,3.50
2018-11-01T04:45:10.955Z,3.60
2018-11-01T04:49:51.136Z,3.60
2018-11-01T04:54:30.895Z,3.70
2018-11-01T04:59:10.953Z,3.80
2018-11-01T05:03:53.308Z,3.90
2018-11-01T05:08:33.315Z,3.90
2018-11-01T05:13:14.279Z,3.90
2018-11-01T05:17:55.398Z,4.00
2018-11-01T05:22:35.221Z,4.00
2018-11-01T05:27:15.185Z,4.00
2018-11-01T05:31:55.140Z,3.90
2018-11-01T05:36:35.141Z,3.90
2018-11-01T05:41:15.064Z,3.90
2018-11-01T05:45:56.038Z,4.00
2018-11-01T05:50:36.072Z,4.00
2018-11-01T05:55:15.754Z,4.10
2018-11-01T05:59:57.866Z,4.20
2018-11-01T06:04:37.726Z,4.20
2018-11-01T06:09:22.828Z,4.30
2018-11-01T06:14:02.768Z,4.30
2018-11-01T06:18:42.864Z,4.30
2018-11-01T06:23:22.749Z,4.30
2018-11-01T06:28:02.985Z,4.20
2018-11-01T06:32:43.529Z,4.30
2018-11-01T06:37:24.394Z,4.30
2018-11-01T06:42:07.408Z,4.30
2018-11-01T06:46:49.153Z,4.40
2018-11-01T06:51:29.921Z,4.40
2018-11-01T06:56:10.209Z,4.50
2018-11-01T07:00:50.146Z,4.50
2018-11-01T07:05:31.031Z,4.50
2018-11-01T07:10:15.478Z,4.70
2018-11-01T07:14:55.603Z,4.80
2018-11-01T07:19:36.829Z,4.80
2018-11-01T07:24:16.782Z,4.80
2018-11-01T07:28:56.734Z,4.90
2018-11-01T07:33:37.453Z,4.90
2018-11-01T07:38:17.431Z,5.00
2018-11-01T07:42:57.368Z,5.00
2018-11-01T07:47:38.660Z,5.10
2018-11-01T07:52:18.813Z,5.20
2018-11-01T07:56:58.781Z,5.20
2018-11-01T08:01:38.601Z,5.30
2018-11-01T08:06:18.548Z,5.40
2018-11-01T08:10:59.630Z,5.50
2018-11-01T08:15:39.509Z,5.60
2018-11-01T08:20:19.524Z,5.70
2018-11-01T08:24:59.114Z,5.80
2018-11-01T08:29:38.908Z,5.90
2018-11-01T08:34:18.940Z,6.00
2018-11-01T08:38:58.622Z,6.10
2018-11-01T08:43:39.480Z,6.20
2018-11-01T08:48:20.247Z,6.30
2018-11-01T08:53:00.577Z,6.30
2018-11-01T08:57:42.363Z,6.40
2018-11-01T09:02:23.589Z,6.50
2018-11-01T09:07:03.764Z,6.50
2018-11-01T09:11:43.589Z,6.70
2018-11-01T09:16:24.249Z,6.90
2018-11-01T09:21:04.268Z,7.00
2018-11-01T09:25:44.198Z,7.10
2018-11-01T09:30:24.189Z,7.20
2018-11-01T09:35:04.240Z,7.30
2018-11-01T09:39:43.849Z,7.40
2018-11-01T09:44:23.642Z,7.50
2018-11-01T09:49:03.633Z,7.60
2018-11-01T09:53:43.459Z,7.60
2018-11-01T09:58:23.619Z,7.60
2018-11-01T10:03:04.584Z,7.60
2018-11-01T10:07:44.537Z,7.60
2018-11-01T10:12:24.978Z,7.60
2018-11-01T10:17:06.165Z,7.60
2018-11-01T10:21:46.511Z,7.60
2018-11-01T10:26:26.445Z,7.70
2018-11-01T10:31:06.505Z,7.70
2018-11-01T10:35:48.201Z,7.80
2018-11-01T10:40:28.201Z,7.90
2018-11-01T10:45:08.438Z,8.00
2018-11-01T10:49:48.958Z,8.10
2018-11-01T10:54:29.121Z,8.20
2018-11-01T10:59:08.956Z,8.20
2018-11-01T11:03:49.734Z,8.30
2018-11-01T11:08:29.672Z,8.30
2018-11-01T11:13:10.424Z,8.30
2018-11-01T11:17:50.798Z,8.40
2018-11-01T11:22:30.624Z,8.30
2018-11-01T11:27:10.409Z,8.30
2018-11-01T11:31:50.282Z,8.20
2018-11-01T11:36:30.010Z,8.10
2018-11-01T11:41:09.820Z,8.10
2018-11-01T11:45:49.716Z,8.10
2018-11-01T11:50:29.695Z,8.00
2018-11-01T11:55:10.829Z,8.00
2018-11-01T11:59:50.795Z,8.00
2018-11-01T12:04:30.601Z,8.00
2018-11-01T12:09:12.777Z,8.00
2018-11-01T12:13:53.071Z,8.00
2018-11-01T12:18:32.980Z,8.00
2018-11-01T12:23:13.091Z,7.90
2018-11-01T12:27:53.074Z,7.90
2018-11-01T12:32:32.841Z,8.00
2018-11-01T12:37:13.075Z,8.00
2018-11-01T12:41:53.028Z,8.00
2018-11-01T12:46:33.319Z,8.00
2018-11-01T12:51:15.465Z,8.10
2018-11-01T12:55:59.037Z,8.20
2018-11-01T13:00:38.870Z,8.20
2018-11-01T13:05:18.860Z,8.30
2018-11-01T13:09:58.653Z,8.80
2018-11-01T13:14:39.294Z,9.30
2018-11-01T13:19:19.446Z,9.60
2018-11-01T13:23:59.584Z,10.00
2018-11-01T13:28:39.610Z,10.30
2018-11-01T13:33:19.833Z,10.30
2018-11-01T13:37:59.893Z,10.50
2018-11-01T13:42:40.296Z,10.60
2018-11-01T13:47:20.415Z,10.40
2018-11-01T13:52:01.282Z,10.30
2018-11-01T13:56:41.182Z,10.60
2018-11-01T14:01:21.043Z,10.70
2018-11-01T14:06:00.925Z,10.40
2018-11-01T14:10:40.848Z,10.10
2018-11-01T14:15:21.376Z,9.90
2018-11-01T14:20:01.148Z,9.80
2018-11-01T14:24:40.905Z,9.70
2018-11-01T14:29:20.777Z,9.60
2018-11-01T14:34:00.669Z,9.50
2018-11-01T14:38:41.093Z,9.50
2018-11-01T14:43:20.958Z,9.50
2018-11-01T14:48:01.012Z,9.50
2018-11-01T14:52:41.646Z,9.50
2018-11-01T14:57:22.559Z,9.50
2018-11-01T15:02:00.902Z,9.50
2018-11-01T15:06:41.120Z,9.50
2018-11-01T15:11:20.918Z,9.50
2018-11-01T15:16:00.952Z,9.40
2018-11-01T15:20:40.896Z,9.40
2018-11-01T15:25:20.853Z,9.30
2018-11-01T15:30:00.740Z,9.30
2018-11-01T15:34:40.697Z,9.20
2018-11-01T15:39:20.575Z,9.20
2018-11-01T15:44:00.468Z,9.10
2018-11-01T15:48:40.840Z,9.00
2018-11-01T15:53:20.739Z,8.90
2018-11-01T15:58:00.569Z,8.80
2018-11-01T16:02:41.646Z,8.70
2018-11-01T16:07:21.495Z,8.50
2018-11-01T16:12:01.405Z,8.40
2018-11-01T16:16:41.679Z,8.40
2018-11-01T16:21:21.510Z,8.40
2018-11-01T16:26:01.474Z,8.20
2018-11-01T16:30:41.405Z,8.10
2018-11-01T16:35:21.186Z,8.00
2018-11-01T16:40:00.892Z,7.90
2018-11-01T16:44:40.628Z,7.70
2018-11-01T16:49:21.013Z,7.50
2018-11-01T16:54:01.170Z,7.50
2018-11-01T16:58:41.085Z,7.40
2018-11-01T17:03:21.144Z,7.40
2018-11-01T17:08:01.004Z,7.30
2018-11-01T17:12:41.024Z,7.30
2018-11-01T17:17:20.920Z,7.20
2018-11-01T17:22:00.861Z,7.20
2018-11-01T17:26:41.002Z,7.30
2018-11-01T17:31:20.794Z,7.20
2018-11-01T17:36:00.732Z,7.20
2018-11-01T17:40:45.366Z,7.20
2018-11-01T17:45:25.466Z,7.20
2018-11-01T17:50:07.728Z,7.20
2018-11-01T17:54:47.512Z,7.20
2018-11-01T17:59:27.537Z,7.20
2018-11-01T18:04:07.917Z,7.10
2018-11-01T18:08:47.755Z,7.10
2018-11-01T18:13:28.090Z,7.10
2018-11-01T18:18:08.546Z,7.20
2018-11-01T18:22:48.396Z,7.20
2018-11-01T18:27:28.644Z,7.20
2018-11-01T18:32:08.455Z,7.30
2018-11-01T18:36:48.438Z,7.30
2018-11-01T18:41:28.306Z,7.40
2018-11-01T18:46:08.578Z,7.40
2018-11-01T18:50:48.363Z,7.50
2018-11-01T18:55:28.464Z,7.60
2018-11-01T19:00:11.747Z,7.70
2018-11-01T19:04:52.187Z,7.80
2018-11-01T19:09:32.013Z,8.00
2018-11-01T19:14:12.202Z,8.20
2018-11-01T19:18:52.340Z,8.30
2018-11-01T19:23:32.346Z,8.40
2018-11-01T19:28:12.262Z,8.60
2018-11-01T19:32:52.362Z,8.70
2018-11-01T19:37:32.306Z,8.80
2018-11-01T19:42:12.165Z,8.90
2018-11-01T19:46:52.290Z,8.90
2018-11-01T19:51:32.176Z,9.00
2018-11-01T19:56:12.198Z,9.00
2018-11-01T20:00:52.672Z,9.10
2018-11-01T20:05:32.833Z,9.20
2018-11-01T20:10:14.346Z,9.20
2018-11-01T20:14:54.276Z,9.20
2018-11-01T20:19:34.339Z,9.20
2018-11-01T20:24:14.401Z,9.10
2018-11-01T20:28:54.311Z,9.00
2018-11-01T20:33:34.279Z,8.90
2018-11-01T20:38:14.684Z,8.90
2018-11-01T20:42:55.670Z,9.00
2018-11-01T20:47:35.627Z,9.00
2018-11-01T20:52:15.429Z,9.10
2018-11-01T20:56:55.142Z,9.10
2018-11-01T21:01:34.881Z,9.10
2018-11-01T21:06:14.667Z,9.20
2018-11-01T21:10:55.283Z,9.20
2018-11-01T21:15:35.416Z,9.20
2018-11-01T21:20:15.486Z,9.20
2018-11-01T21:24:55.416Z,9.20
2018-11-01T21:29:35.550Z,9.20
2018-11-01T21:34:16.538Z,9.20
2018-11-01T21:38:56.827Z,9.10
2018-11-01T21:43:36.857Z,9.10
2018-11-01T21:48:17.486Z,9.10
2018-11-01T21:52:58.326Z,9.10
2018-11-01T21:57:39.201Z,9.00
2018-11-01T22:02:19.280Z,8.90
2018-11-01T22:07:00.324Z,8.80
2018-11-01T22:11:41.106Z,8.70
2018-11-01T22:16:21.340Z,8.60
2018-11-01T22:21:01.362Z,8.60
2018-11-01T22:25:41.080Z,8.50
2018-11-01T22:30:21.555Z,8.60
2018-11-01T22:35:01.408Z,8.60
2018-11-01T22:39:41.508Z,8.60
2018-11-01T22:44:21.712Z,8.50
2018-11-01T22:49:01.650Z,8.40
2018-11-01T22:53:41.424Z,8.30
2018-11-01T22:58:22.184Z,8.30
2018-11-01T23:03:02.676Z,8.40
2018-11-01T23:07:42.442Z,8.40
2018-11-01T23:12:22.795Z,8.50
2018-11-01T23:17:02.780Z,8.50
2018-11-01T23:21:42.988Z,8.60
2018-11-01T23:26:24.655Z,8.60
2018-11-01T23:31:04.626Z,8.50
2018-11-01T23:35:44.692Z,8.60
2018-11-01T23:40:29.777Z,8.60
2018-11-01T23:45:15.790Z,8.60
2018-11-01T23:51:35.037Z,8.70
2018-11-01T23:56:15.278Z,8.70
